sensor_id;sensor_type;location;lat;lon;timestamp;temperature;humidity
6581;DHT22;3324;50.796;7.228;2023-09-18T00:00:15;20.80;99.90
6581;DHT22;3324;50.796;7.228;2023-09-18T00:02:40;20.80;99.90
6581;DHT22;3324;50.796;7.228;2023-09-18T00:05:06;20.80;99.90
6581;DHT22;3324;50.796;7.228;2023-09-18T00:07:31;20.70;99.90
6581;DHT22;3324;50.796;7.228;2023-09-18T00:09:57;20.70;99.90
6581;DHT22;3324;50.796;7.228;2023-09-18T00:12:22;20.70;99.90
6581;DHT22;3324;50.796;7.228;2023-09-18T00:14:48;20.70;99.90
6581;DHT22;3324;50.796;7.228;2023-09-18T00:17:14;20.70;99.90
6581;DHT22;3324;50.796;7.228;2023-09-18T00:19:40;20.70;99.90
6581;DHT22;3324;50.796;7.228;2023-09-18T00:22:05;20.70;99.90
6581;DHT22;3324;50.796;7.228;2023-09-18T00:24:31;20.70;99.90
6581;DHT22;3324;50.796;7.228;2023-09-18T00:26:57;20.60;99.90
6581;DHT22;3324;50.796;7.228;2023-09-18T00:29:23;20.60;99.90
6581;DHT22;3324;50.796;7.228;2023-09-18T00:31:48;20.60;99.90
6581;DHT22;3324;50.796;7.228;2023-09-18T00:34:13;20.60;99.90
6581;DHT22;3324;50.796;7.228;2023-09-18T00:36:39;20.60;99.90
6581;DHT22;3324;50.796;7.228;2023-09-18T00:39:04;20.60;99.90
6581;DHT22;3324;50.796;7.228;2023-09-18T00:41:30;20.60;99.90
6581;DHT22;3324;50.796;7.228;2023-09-18T00:43:55;20.60;99.90
6581;DHT22;3324;50.796;7.228;2023-09-18T00:46:21;20.60;99.90
6581;DHT22;3324;50.796;7.228;2023-09-18T00:48:47;20.50;99.90
6581;DHT22;3324;50.796;7.228;2023-09-18T00:51:13;20.50;99.90
6581;DHT22;3324;50.796;7.228;2023-09-18T00:53:39;20.50;99.90
6581;DHT22;3324;50.796;7.228;2023-09-18T00:56:04;20.50;99.90
6581;DHT22;3324;50.796;7.228;2023-09-18T00:58:30;20.50;99.90
6581;DHT22;3324;50.796;7.228;2023-09-18T01:00:56;20.50;99.90
6581;DHT22;3324;50.796;7.228;2023-09-18T01:03:23;20.50;99.90
6581;DHT22;3324;50.796;7.228;2023-09-18T01:05:51;20.50;99.90
6581;DHT22;3324;50.796;7.228;2023-09-18T01:08:16;20.40;99.90
6581;DHT22;3324;50.796;7.228;2023-09-18T01:10:45;20.50;99.90
6581;DHT22;3324;50.796;7.228;2023-09-18T01:13:14;20.50;99.90
6581;DHT22;3324;50.796;7.228;2023-09-18T01:15:44;20.40;99.90
6581;DHT22;3324;50.796;7.228;2023-09-18T01:18:10;20.40;99.90
6581;DHT22;3324;50.796;7.228;2023-09-18T01:20:35;20.30;99.90
6581;DHT22;3324;50.796;7.228;2023-09-18T01:23:01;20.30;99.90
6581;DHT22;3324;50.796;7.228;2023-09-18T01:25:26;20.30;99.90
6581;DHT22;3324;50.796;7.228;2023-09-18T01:27:52;20.40;99.90
6581;DHT22;3324;50.796;7.228;2023-09-18T01:30:17;20.40;99.90
6581;DHT22;3324;50.796;7.228;2023-09-18T01:32:43;20.40;99.90
6581;DHT22;3324;50.796;7.228;2023-09-18T01:35:10;20.40;99.90
6581;DHT22;3324;50.796;7.228;2023-09-18T01:37:36;20.50;99.90
6581;DHT22;3324;50.796;7.228;2023-09-18T01:40:03;20.50;99.90
6581;DHT22;3324;50.796;7.228;2023-09-18T01:42:31;20.50;99.90
6581;DHT22;3324;50.796;7.228;2023-09-18T01:44:57;20.50;99.90
6581;DHT22;3324;50.796;7.228;2023-09-18T01:47:23;20.50;99.90
6581;DHT22;3324;50.796;7.228;2023-09-18T01:49:48;20.50;99.90
6581;DHT22;3324;50.796;7.228;2023-09-18T01:52:14;20.60;99.90
6581;DHT22;3324;50.796;7.228;2023-09-18T01:54:40;20.60;99.90
6581;DHT22;3324;50.796;7.228;2023-09-18T01:57:06;20.60;99.90
6581;DHT22;3324;50.796;7.228;2023-09-18T01:59:33;20.60;99.90
6581;DHT22;3324;50.796;7.228;2023-09-18T02:01:59;20.70;99.90
6581;DHT22;3324;50.796;7.228;2023-09-18T02:04:25;20.70;99.90
6581;DHT22;3324;50.796;7.228;2023-09-18T02:06:51;20.80;99.90
6581;DHT22;3324;50.796;7.228;2023-09-18T02:09:17;20.80;99.90
6581;DHT22;3324;50.796;7.228;2023-09-18T02:11:44;20.80;99.90
6581;DHT22;3324;50.796;7.228;2023-09-18T02:14:10;20.90;99.90
6581;DHT22;3324;50.796;7.228;2023-09-18T02:16:36;20.90;99.90
6581;DHT22;3324;50.796;7.228;2023-09-18T02:19:02;20.90;99.90
6581;DHT22;3324;50.796;7.228;2023-09-18T02:21:27;20.90;99.90
6581;DHT22;3324;50.796;7.228;2023-09-18T02:23:53;21.00;99.90
6581;DHT22;3324;50.796;7.228;2023-09-18T02:26:20;21.00;99.90
6581;DHT22;3324;50.796;7.228;2023-09-18T02:28:45;21.00;99.90
6581;DHT22;3324;50.796;7.228;2023-09-18T02:31:11;20.90;99.90
6581;DHT22;3324;50.796;7.228;2023-09-18T02:33:40;21.00;99.90
6581;DHT22;3324;50.796;7.228;2023-09-18T02:36:05;21.00;99.90
6581;DHT22;3324;50.796;7.228;2023-09-18T02:38:31;21.00;99.90
6581;DHT22;3324;50.796;7.228;2023-09-18T02:40:57;21.00;99.90
6581;DHT22;3324;50.796;7.228;2023-09-18T02:43:23;21.10;99.90
6581;DHT22;3324;50.796;7.228;2023-09-18T02:45:49;21.10;99.90
6581;DHT22;3324;50.796;7.228;2023-09-18T02:48:14;21.00;99.90
6581;DHT22;3324;50.796;7.228;2023-09-18T02:50:40;20.90;99.90
6581;DHT22;3324;50.796;7.228;2023-09-18T02:53:06;20.80;99.90
6581;DHT22;3324;50.796;7.228;2023-09-18T02:55:34;20.70;99.90
6581;DHT22;3324;50.796;7.228;2023-09-18T02:57:59;20.70;99.90
6581;DHT22;3324;50.796;7.228;2023-09-18T03:00:25;20.70;99.90
6581;DHT22;3324;50.796;7.228;2023-09-18T03:02:50;20.70;99.90
6581;DHT22;3324;50.796;7.228;2023-09-18T03:05:15;20.70;99.90
6581;DHT22;3324;50.796;7.228;2023-09-18T03:07:42;20.70;99.90
6581;DHT22;3324;50.796;7.228;2023-09-18T03:10:09;20.60;99.90
6581;DHT22;3324;50.796;7.228;2023-09-18T03:12:39;20.60;99.90
6581;DHT22;3324;50.796;7.228;2023-09-18T03:15:04;20.60;99.90
6581;DHT22;3324;50.796;7.228;2023-09-18T03:17:31;20.50;99.90
6581;DHT22;3324;50.796;7.228;2023-09-18T03:19:57;20.50;99.90
6581;DHT22;3324;50.796;7.228;2023-09-18T03:22:22;20.50;99.90
6581;DHT22;3324;50.796;7.228;2023-09-18T03:24:48;20.50;99.90
6581;DHT22;3324;50.796;7.228;2023-09-18T03:27:13;20.50;99.90
6581;DHT22;3324;50.796;7.228;2023-09-18T03:29:39;20.40;99.90
6581;DHT22;3324;50.796;7.228;2023-09-18T03:32:04;20.40;99.90
6581;DHT22;3324;50.796;7.228;2023-09-18T03:34:30;20.40;99.90
6581;DHT22;3324;50.796;7.228;2023-09-18T03:36:55;20.40;99.90
6581;DHT22;3324;50.796;7.228;2023-09-18T03:39:21;20.40;99.90
6581;DHT22;3324;50.796;7.228;2023-09-18T03:41:46;20.40;99.90
6581;DHT22;3324;50.796;7.228;2023-09-18T03:44:12;20.40;99.90
6581;DHT22;3324;50.796;7.228;2023-09-18T03:46:37;20.30;99.90
6581;DHT22;3324;50.796;7.228;2023-09-18T03:49:02;20.30;99.90
6581;DHT22;3324;50.796;7.228;2023-09-18T03:51:28;20.30;99.90
6581;DHT22;3324;50.796;7.228;2023-09-18T03:53:55;20.30;99.90
6581;DHT22;3324;50.796;7.228;2023-09-18T03:56:20;20.30;99.90
6581;DHT22;3324;50.796;7.228;2023-09-18T03:58:47;20.30;99.90
6581;DHT22;3324;50.796;7.228;2023-09-18T04:01:15;20.30;99.90
6581;DHT22;3324;50.796;7.228;2023-09-18T04:03:40;20.30;99.90
6581;DHT22;3324;50.796;7.228;2023-09-18T04:06:06;20.30;99.90
6581;DHT22;3324;50.796;7.228;2023-09-18T04:08:32;20.30;99.90
6581;DHT22;3324;50.796;7.228;2023-09-18T04:10:57;20.30;99.90
6581;DHT22;3324;50.796;7.228;2023-09-18T04:13:23;20.30;99.90
6581;DHT22;3324;50.796;7.228;2023-09-18T04:15:49;20.20;99.90
6581;DHT22;3324;50.796;7.228;2023-09-18T04:18:14;20.20;99.90
6581;DHT22;3324;50.796;7.228;2023-09-18T04:20:40;20.20;99.90
6581;DHT22;3324;50.796;7.228;2023-09-18T04:25:43;20.20;99.90
6581;DHT22;3324;50.796;7.228;2023-09-18T04:28:08;20.20;99.90
6581;DHT22;3324;50.796;7.228;2023-09-18T04:30:34;20.20;99.90
6581;DHT22;3324;50.796;7.228;2023-09-18T04:33:00;20.30;99.90
6581;DHT22;3324;50.796;7.228;2023-09-18T04:35:25;20.40;99.90
6581;DHT22;3324;50.796;7.228;2023-09-18T04:37:55;20.30;99.90
6581;DHT22;3324;50.796;7.228;2023-09-18T04:40:21;20.30;99.90
6581;DHT22;3324;50.796;7.228;2023-09-18T04:42:46;20.40;99.90
6581;DHT22;3324;50.796;7.228;2023-09-18T04:45:12;20.50;99.90
6581;DHT22;3324;50.796;7.228;2023-09-18T04:47:37;20.50;99.90
6581;DHT22;3324;50.796;7.228;2023-09-18T04:50:03;20.50;99.90
6581;DHT22;3324;50.796;7.228;2023-09-18T04:52:31;20.50;99.90
6581;DHT22;3324;50.796;7.228;2023-09-18T04:54:57;20.60;99.90
6581;DHT22;3324;50.796;7.228;2023-09-18T04:57:22;20.60;99.90
6581;DHT22;3324;50.796;7.228;2023-09-18T04:59:49;20.70;99.90
6581;DHT22;3324;50.796;7.228;2023-09-18T05:02:15;20.60;99.90
6581;DHT22;3324;50.796;7.228;2023-09-18T05:04:41;20.80;99.90
6581;DHT22;3324;50.796;7.228;2023-09-18T05:07:07;20.80;99.90
6581;DHT22;3324;50.796;7.228;2023-09-18T05:09:32;20.70;99.90
6581;DHT22;3324;50.796;7.228;2023-09-18T05:11:59;20.80;99.90
6581;DHT22;3324;50.796;7.228;2023-09-18T05:14:25;20.70;99.90
6581;DHT22;3324;50.796;7.228;2023-09-18T05:16:50;20.80;99.90
6581;DHT22;3324;50.796;7.228;2023-09-18T05:19:16;20.80;99.90
6581;DHT22;3324;50.796;7.228;2023-09-18T05:21:41;20.80;99.90
6581;DHT22;3324;50.796;7.228;2023-09-18T05:24:07;20.80;99.90
6581;DHT22;3324;50.796;7.228;2023-09-18T05:26:33;20.80;99.90
6581;DHT22;3324;50.796;7.228;2023-09-18T05:28:59;20.70;99.90
6581;DHT22;3324;50.796;7.228;2023-09-18T05:31:24;20.70;99.90
6581;DHT22;3324;50.796;7.228;2023-09-18T05:33:50;20.70;99.90
6581;DHT22;3324;50.796;7.228;2023-09-18T05:36:15;20.60;99.90
6581;DHT22;3324;50.796;7.228;2023-09-18T05:38:41;20.60;99.90
6581;DHT22;3324;50.796;7.228;2023-09-18T05:41:08;20.50;99.90
6581;DHT22;3324;50.796;7.228;2023-09-18T05:43:35;20.50;99.90
6581;DHT22;3324;50.796;7.228;2023-09-18T05:46:01;20.50;99.90
6581;DHT22;3324;50.796;7.228;2023-09-18T05:48:26;20.50;99.90
6581;DHT22;3324;50.796;7.228;2023-09-18T05:50:51;20.60;99.90
6581;DHT22;3324;50.796;7.228;2023-09-18T05:53:19;20.60;99.90
6581;DHT22;3324;50.796;7.228;2023-09-18T05:55:45;20.60;99.90
6581;DHT22;3324;50.796;7.228;2023-09-18T05:58:11;20.70;99.90
6581;DHT22;3324;50.796;7.228;2023-09-18T06:00:36;20.70;99.90
6581;DHT22;3324;50.796;7.228;2023-09-18T06:03:02;20.70;99.90
6581;DHT22;3324;50.796;7.228;2023-09-18T06:05:28;20.80;99.90
6581;DHT22;3324;50.796;7.228;2023-09-18T06:07:56;20.70;99.90
6581;DHT22;3324;50.796;7.228;2023-09-18T06:10:21;20.60;99.90
6581;DHT22;3324;50.796;7.228;2023-09-18T06:12:47;20.60;99.90
6581;DHT22;3324;50.796;7.228;2023-09-18T06:15:12;20.70;99.90
6581;DHT22;3324;50.796;7.228;2023-09-18T06:17:38;20.70;99.90
6581;DHT22;3324;50.796;7.228;2023-09-18T06:20:05;20.70;99.90
6581;DHT22;3324;50.796;7.228;2023-09-18T06:22:33;20.60;99.90
6581;DHT22;3324;50.796;7.228;2023-09-18T06:24:58;20.70;99.90
6581;DHT22;3324;50.796;7.228;2023-09-18T06:27:24;20.80;99.90
6581;DHT22;3324;50.796;7.228;2023-09-18T06:29:49;20.90;99.90
6581;DHT22;3324;50.796;7.228;2023-09-18T06:32:15;20.90;99.90
6581;DHT22;3324;50.796;7.228;2023-09-18T06:34:40;20.90;99.90
6581;DHT22;3324;50.796;7.228;2023-09-18T06:37:09;20.90;99.90
6581;DHT22;3324;50.796;7.228;2023-09-18T06:39:36;20.90;99.90
6581;DHT22;3324;50.796;7.228;2023-09-18T06:42:02;20.90;99.90
6581;DHT22;3324;50.796;7.228;2023-09-18T06:44:28;20.90;99.90
6581;DHT22;3324;50.796;7.228;2023-09-18T06:46:53;20.90;99.90
6581;DHT22;3324;50.796;7.228;2023-09-18T06:49:19;20.90;99.90
6581;DHT22;3324;50.796;7.228;2023-09-18T06:51:44;20.90;99.90
6581;DHT22;3324;50.796;7.228;2023-09-18T06:54:10;21.00;99.90
6581;DHT22;3324;50.796;7.228;2023-09-18T06:56:35;21.00;99.90
6581;DHT22;3324;50.796;7.228;2023-09-18T06:59:01;21.00;99.90
6581;DHT22;3324;50.796;7.228;2023-09-18T07:01:26;21.10;99.90
6581;DHT22;3324;50.796;7.228;2023-09-18T07:03:53;21.10;99.90
6581;DHT22;3324;50.796;7.228;2023-09-18T07:06:18;21.10;99.90
6581;DHT22;3324;50.796;7.228;2023-09-18T07:08:45;21.10;99.90
6581;DHT22;3324;50.796;7.228;2023-09-18T07:11:11;21.10;99.90
6581;DHT22;3324;50.796;7.228;2023-09-18T07:13:37;21.10;99.90
6581;DHT22;3324;50.796;7.228;2023-09-18T07:16:03;21.10;99.90
6581;DHT22;3324;50.796;7.228;2023-09-18T07:18:28;21.10;99.90
6581;DHT22;3324;50.796;7.228;2023-09-18T07:20:54;21.10;99.90
6581;DHT22;3324;50.796;7.228;2023-09-18T07:23:20;21.10;99.90
6581;DHT22;3324;50.796;7.228;2023-09-18T07:25:47;21.10;99.90
6581;DHT22;3324;50.796;7.228;2023-09-18T07:28:12;21.10;99.90
6581;DHT22;3324;50.796;7.228;2023-09-18T07:30:42;21.20;99.90
6581;DHT22;3324;50.796;7.228;2023-09-18T07:33:09;21.20;99.90
6581;DHT22;3324;50.796;7.228;2023-09-18T07:35:35;21.20;99.90
6581;DHT22;3324;50.796;7.228;2023-09-18T07:38:00;21.20;99.90
6581;DHT22;3324;50.796;7.228;2023-09-18T07:40:26;21.20;99.90
6581;DHT22;3324;50.796;7.228;2023-09-18T07:42:51;21.20;99.90
6581;DHT22;3324;50.796;7.228;2023-09-18T07:45:17;21.30;99.90
6581;DHT22;3324;50.796;7.228;2023-09-18T07:47:43;21.30;99.90
6581;DHT22;3324;50.796;7.228;2023-09-18T07:50:09;21.30;99.90
6581;DHT22;3324;50.796;7.228;2023-09-18T07:52:35;21.30;99.90
6581;DHT22;3324;50.796;7.228;2023-09-18T07:55:00;21.30;99.90
6581;DHT22;3324;50.796;7.228;2023-09-18T07:57:26;21.30;99.90
6581;DHT22;3324;50.796;7.228;2023-09-18T07:59:53;21.30;99.90
6581;DHT22;3324;50.796;7.228;2023-09-18T08:02:19;21.30;99.90
6581;DHT22;3324;50.796;7.228;2023-09-18T08:04:44;21.40;99.90
6581;DHT22;3324;50.796;7.228;2023-09-18T08:07:10;21.40;99.90
6581;DHT22;3324;50.796;7.228;2023-09-18T08:09:37;21.40;99.90
6581;DHT22;3324;50.796;7.228;2023-09-18T08:12:04;21.40;99.90
6581;DHT22;3324;50.796;7.228;2023-09-18T08:14:30;21.40;99.90
6581;DHT22;3324;50.796;7.228;2023-09-18T08:16:59;21.40;99.90
6581;DHT22;3324;50.796;7.228;2023-09-18T08:19:25;21.40;99.90
6581;DHT22;3324;50.796;7.228;2023-09-18T08:21:54;21.40;99.90
6581;DHT22;3324;50.796;7.228;2023-09-18T08:24:20;21.40;99.90
6581;DHT22;3324;50.796;7.228;2023-09-18T08:26:46;21.40;99.90
6581;DHT22;3324;50.796;7.228;2023-09-18T08:29:11;21.40;99.90
6581;DHT22;3324;50.796;7.228;2023-09-18T08:31:37;21.40;99.90
6581;DHT22;3324;50.796;7.228;2023-09-18T08:34:02;21.40;99.90
6581;DHT22;3324;50.796;7.228;2023-09-18T08:36:28;21.40;99.90
6581;DHT22;3324;50.796;7.228;2023-09-18T08:38:55;21.40;99.90
6581;DHT22;3324;50.796;7.228;2023-09-18T08:41:21;21.40;99.90
6581;DHT22;3324;50.796;7.228;2023-09-18T08:43:50;21.40;99.90
6581;DHT22;3324;50.796;7.228;2023-09-18T08:46:17;21.40;99.90
6581;DHT22;3324;50.796;7.228;2023-09-18T08:48:43;21.40;99.90
6581;DHT22;3324;50.796;7.228;2023-09-18T08:51:09;21.40;99.90
6581;DHT22;3324;50.796;7.228;2023-09-18T08:53:35;21.40;99.90
6581;DHT22;3324;50.796;7.228;2023-09-18T08:56:01;21.40;99.90
6581;DHT22;3324;50.796;7.228;2023-09-18T08:58:28;21.50;99.90
6581;DHT22;3324;50.796;7.228;2023-09-18T09:00:53;21.50;99.90
6581;DHT22;3324;50.796;7.228;2023-09-18T09:03:19;21.50;99.90
6581;DHT22;3324;50.796;7.228;2023-09-18T09:05:44;21.50;99.90
6581;DHT22;3324;50.796;7.228;2023-09-18T09:08:10;21.50;99.90
6581;DHT22;3324;50.796;7.228;2023-09-18T09:10:35;21.50;99.90
6581;DHT22;3324;50.796;7.228;2023-09-18T09:13:01;21.50;99.90
6581;DHT22;3324;50.796;7.228;2023-09-18T09:15:34;21.60;99.90
6581;DHT22;3324;50.796;7.228;2023-09-18T09:18:11;21.60;99.90
6581;DHT22;3324;50.796;7.228;2023-09-18T09:20:36;21.70;99.90
6581;DHT22;3324;50.796;7.228;2023-09-18T09:23:02;21.70;99.90
6581;DHT22;3324;50.796;7.228;2023-09-18T09:25:29;21.70;99.90
6581;DHT22;3324;50.796;7.228;2023-09-18T09:27:57;21.70;99.90
6581;DHT22;3324;50.796;7.228;2023-09-18T09:30:24;21.70;99.90
6581;DHT22;3324;50.796;7.228;2023-09-18T09:32:53;21.70;99.90
6581;DHT22;3324;50.796;7.228;2023-09-18T09:35:26;21.60;99.90
6581;DHT22;3324;50.796;7.228;2023-09-18T09:37:53;21.60;99.90
6581;DHT22;3324;50.796;7.228;2023-09-18T09:40:21;21.60;99.90
6581;DHT22;3324;50.796;7.228;2023-09-18T09:42:47;21.60;99.90
6581;DHT22;3324;50.796;7.228;2023-09-18T09:45:13;21.60;99.90
6581;DHT22;3324;50.796;7.228;2023-09-18T09:47:40;21.60;99.90
6581;DHT22;3324;50.796;7.228;2023-09-18T09:50:09;21.50;99.90
6581;DHT22;3324;50.796;7.228;2023-09-18T09:52:35;21.50;99.90
6581;DHT22;3324;50.796;7.228;2023-09-18T09:55:02;21.50;99.90
6581;DHT22;3324;50.796;7.228;2023-09-18T09:57:30;21.50;99.90
6581;DHT22;3324;50.796;7.228;2023-09-18T10:00:03;21.50;99.90
6581;DHT22;3324;50.796;7.228;2023-09-18T10:02:46;21.60;99.90
6581;DHT22;3324;50.796;7.228;2023-09-18T10:05:12;21.60;99.90
6581;DHT22;3324;50.796;7.228;2023-09-18T10:07:38;21.60;99.90
6581;DHT22;3324;50.796;7.228;2023-09-18T10:10:04;21.70;99.90
6581;DHT22;3324;50.796;7.228;2023-09-18T10:12:29;21.80;99.90
6581;DHT22;3324;50.796;7.228;2023-09-18T10:14:55;21.80;99.90
6581;DHT22;3324;50.796;7.228;2023-09-18T10:17:21;21.80;99.90
6581;DHT22;3324;50.796;7.228;2023-09-18T10:24:39;22.10;99.90
6581;DHT22;3324;50.796;7.228;2023-09-18T10:27:06;22.30;99.90
6581;DHT22;3324;50.796;7.228;2023-09-18T10:29:34;22.40;99.90
6581;DHT22;3324;50.796;7.228;2023-09-18T10:32:04;22.60;99.90
6581;DHT22;3324;50.796;7.228;2023-09-18T10:34:30;22.80;99.90
6581;DHT22;3324;50.796;7.228;2023-09-18T10:36:56;23.00;99.90
6581;DHT22;3324;50.796;7.228;2023-09-18T10:39:25;23.00;99.90
6581;DHT22;3324;50.796;7.228;2023-09-18T10:41:53;22.90;99.90
6581;DHT22;3324;50.796;7.228;2023-09-18T10:44:18;23.00;99.90
6581;DHT22;3324;50.796;7.228;2023-09-18T10:46:53;22.90;99.90
6581;DHT22;3324;50.796;7.228;2023-09-18T10:49:19;23.10;99.90
6581;DHT22;3324;50.796;7.228;2023-09-18T10:51:45;23.40;99.90
6581;DHT22;3324;50.796;7.228;2023-09-18T10:54:14;23.40;99.90
6581;DHT22;3324;50.796;7.228;2023-09-18T10:56:41;23.30;99.90
6581;DHT22;3324;50.796;7.228;2023-09-18T10:59:07;23.20;99.90
6581;DHT22;3324;50.796;7.228;2023-09-18T11:01:33;23.30;99.90
6581;DHT22;3324;50.796;7.228;2023-09-18T11:04:02;23.40;99.90
6581;DHT22;3324;50.796;7.228;2023-09-18T11:06:28;23.40;99.90
6581;DHT22;3324;50.796;7.228;2023-09-18T11:09:01;23.50;99.90
6581;DHT22;3324;50.796;7.228;2023-09-18T11:11:29;23.60;99.90
6581;DHT22;3324;50.796;7.228;2023-09-18T11:13:58;23.80;99.90
6581;DHT22;3324;50.796;7.228;2023-09-18T11:18:51;23.80;99.90
6581;DHT22;3324;50.796;7.228;2023-09-18T11:21:23;23.90;99.90
6581;DHT22;3324;50.796;7.228;2023-09-18T11:23:51;24.00;99.90
6581;DHT22;3324;50.796;7.228;2023-09-18T11:26:22;24.20;99.90
6581;DHT22;3324;50.796;7.228;2023-09-18T11:28:48;24.50;99.90
6581;DHT22;3324;50.796;7.228;2023-09-18T11:31:15;24.60;99.90
6581;DHT22;3324;50.796;7.228;2023-09-18T11:33:41;24.50;99.90
6581;DHT22;3324;50.796;7.228;2023-09-18T11:36:12;24.50;99.90
6581;DHT22;3324;50.796;7.228;2023-09-18T11:41:19;24.50;99.90
6581;DHT22;3324;50.796;7.228;2023-09-18T11:43:45;24.60;99.90
6581;DHT22;3324;50.796;7.228;2023-09-18T11:46:10;24.70;99.90
6581;DHT22;3324;50.796;7.228;2023-09-18T11:48:37;24.80;99.90
6581;DHT22;3324;50.796;7.228;2023-09-18T11:51:06;24.90;99.90
6581;DHT22;3324;50.796;7.228;2023-09-18T11:53:36;25.10;99.90
6581;DHT22;3324;50.796;7.228;2023-09-18T11:56:14;25.20;99.90
6581;DHT22;3324;50.796;7.228;2023-09-18T11:58:50;25.20;99.90
6581;DHT22;3324;50.796;7.228;2023-09-18T12:01:16;25.20;99.90
6581;DHT22;3324;50.796;7.228;2023-09-18T12:03:41;25.30;99.90
6581;DHT22;3324;50.796;7.228;2023-09-18T12:06:08;25.20;99.90
6581;DHT22;3324;50.796;7.228;2023-09-18T12:08:38;25.30;99.90
6581;DHT22;3324;50.796;7.228;2023-09-18T12:11:07;25.30;99.90
6581;DHT22;3324;50.796;7.228;2023-09-18T12:13:32;25.20;99.90
6581;DHT22;3324;50.796;7.228;2023-09-18T12:15:58;25.20;99.90
6581;DHT22;3324;50.796;7.228;2023-09-18T12:18:24;25.10;99.90
6581;DHT22;3324;50.796;7.228;2023-09-18T12:20:50;25.30;99.90
6581;DHT22;3324;50.796;7.228;2023-09-18T12:23:16;25.50;99.90
6581;DHT22;3324;50.796;7.228;2023-09-18T12:25:44;25.50;99.90
6581;DHT22;3324;50.796;7.228;2023-09-18T12:28:10;25.30;99.90
6581;DHT22;3324;50.796;7.228;2023-09-18T12:30:36;25.30;99.90
6581;DHT22;3324;50.796;7.228;2023-09-18T12:33:01;25.20;99.90
6581;DHT22;3324;50.796;7.228;2023-09-18T12:35:29;25.20;99.90
6581;DHT22;3324;50.796;7.228;2023-09-18T12:37:56;25.10;99.90
6581;DHT22;3324;50.796;7.228;2023-09-18T12:40:28;25.00;99.90
6581;DHT22;3324;50.796;7.228;2023-09-18T12:42:55;25.00;99.90
6581;DHT22;3324;50.796;7.228;2023-09-18T12:45:21;25.00;99.90
6581;DHT22;3324;50.796;7.228;2023-09-18T12:47:46;25.10;99.90
6581;DHT22;3324;50.796;7.228;2023-09-18T12:50:12;25.30;99.90
6581;DHT22;3324;50.796;7.228;2023-09-18T12:52:38;25.30;99.90
6581;DHT22;3324;50.796;7.228;2023-09-18T12:55:04;25.40;99.90
6581;DHT22;3324;50.796;7.228;2023-09-18T12:57:32;25.40;99.90
6581;DHT22;3324;50.796;7.228;2023-09-18T12:59:58;25.40;99.90
6581;DHT22;3324;50.796;7.228;2023-09-18T13:02:23;25.40;99.90
6581;DHT22;3324;50.796;7.228;2023-09-18T13:04:53;25.40;99.90
6581;DHT22;3324;50.796;7.228;2023-09-18T13:09:59;25.30;99.90
6581;DHT22;3324;50.796;7.228;2023-09-18T13:12:47;25.30;99.90
6581;DHT22;3324;50.796;7.228;2023-09-18T13:15:14;25.50;99.90
6581;DHT22;3324;50.796;7.228;2023-09-18T13:17:49;25.50;99.90
6581;DHT22;3324;50.796;7.228;2023-09-18T13:22:41;25.80;99.90
6581;DHT22;3324;50.796;7.228;2023-09-18T13:25:08;25.70;99.90
6581;DHT22;3324;50.796;7.228;2023-09-18T13:27:33;25.80;99.90
6581;DHT22;3324;50.796;7.228;2023-09-18T13:29:59;25.80;99.90
6581;DHT22;3324;50.796;7.228;2023-09-18T13:32:33;25.80;99.90
6581;DHT22;3324;50.796;7.228;2023-09-18T13:34:59;25.90;99.90
6581;DHT22;3324;50.796;7.228;2023-09-18T13:37:24;25.90;99.90
6581;DHT22;3324;50.796;7.228;2023-09-18T13:39:51;25.80;99.90
6581;DHT22;3324;50.796;7.228;2023-09-18T13:42:16;25.90;99.90
6581;DHT22;3324;50.796;7.228;2023-09-18T13:44:42;25.80;99.90
6581;DHT22;3324;50.796;7.228;2023-09-18T13:47:07;25.80;99.90
6581;DHT22;3324;50.796;7.228;2023-09-18T13:49:33;25.70;99.90
6581;DHT22;3324;50.796;7.228;2023-09-18T13:51:58;25.70;99.90
6581;DHT22;3324;50.796;7.228;2023-09-18T13:54:25;25.80;99.90
6581;DHT22;3324;50.796;7.228;2023-09-18T13:56:50;25.90;99.90
6581;DHT22;3324;50.796;7.228;2023-09-18T13:59:16;26.00;99.90
6581;DHT22;3324;50.796;7.228;2023-09-18T14:01:42;26.00;99.90
6581;DHT22;3324;50.796;7.228;2023-09-18T14:04:07;25.90;99.90
6581;DHT22;3324;50.796;7.228;2023-09-18T14:06:33;25.80;99.90
6581;DHT22;3324;50.796;7.228;2023-09-18T14:08:58;25.80;99.90
6581;DHT22;3324;50.796;7.228;2023-09-18T14:11:24;25.80;99.90
6581;DHT22;3324;50.796;7.228;2023-09-18T14:13:49;25.90;99.90
6581;DHT22;3324;50.796;7.228;2023-09-18T14:16:15;26.00;99.90
6581;DHT22;3324;50.796;7.228;2023-09-18T14:18:40;25.90;99.90
6581;DHT22;3324;50.796;7.228;2023-09-18T14:21:06;25.80;99.90
6581;DHT22;3324;50.796;7.228;2023-09-18T14:23:31;25.80;99.90
6581;DHT22;3324;50.796;7.228;2023-09-18T14:25:59;25.90;99.90
6581;DHT22;3324;50.796;7.228;2023-09-18T14:28:26;26.00;99.90
6581;DHT22;3324;50.796;7.228;2023-09-18T14:30:51;26.10;99.90
6581;DHT22;3324;50.796;7.228;2023-09-18T14:33:16;26.10;99.90
6581;DHT22;3324;50.796;7.228;2023-09-18T14:35:42;26.00;99.90
6581;DHT22;3324;50.796;7.228;2023-09-18T14:38:07;26.00;99.90
6581;DHT22;3324;50.796;7.228;2023-09-18T14:40:33;26.10;99.90
6581;DHT22;3324;50.796;7.228;2023-09-18T14:42:59;25.90;99.90
6581;DHT22;3324;50.796;7.228;2023-09-18T14:45:24;25.90;99.90
6581;DHT22;3324;50.796;7.228;2023-09-18T14:47:50;25.70;99.90
6581;DHT22;3324;50.796;7.228;2023-09-18T14:50:15;25.70;99.90
6581;DHT22;3324;50.796;7.228;2023-09-18T14:52:41;25.80;99.90
6581;DHT22;3324;50.796;7.228;2023-09-18T14:55:07;25.90;99.90
6581;DHT22;3324;50.796;7.228;2023-09-18T14:57:32;26.00;99.90
6581;DHT22;3324;50.796;7.228;2023-09-18T14:59:58;26.00;99.90
6581;DHT22;3324;50.796;7.228;2023-09-18T15:02:23;26.00;99.90
6581;DHT22;3324;50.796;7.228;2023-09-18T15:04:54;26.00;99.90
6581;DHT22;3324;50.796;7.228;2023-09-18T15:07:19;25.90;99.90
6581;DHT22;3324;50.796;7.228;2023-09-18T15:09:45;25.80;99.90
6581;DHT22;3324;50.796;7.228;2023-09-18T15:12:10;25.50;99.90
6581;DHT22;3324;50.796;7.228;2023-09-18T15:14:36;25.50;99.90
6581;DHT22;3324;50.796;7.228;2023-09-18T15:17:02;25.50;99.90
6581;DHT22;3324;50.796;7.228;2023-09-18T15:19:28;25.60;99.90
6581;DHT22;3324;50.796;7.228;2023-09-18T15:21:53;25.50;99.90
6581;DHT22;3324;50.796;7.228;2023-09-18T15:24:21;25.50;99.90
6581;DHT22;3324;50.796;7.228;2023-09-18T15:26:46;25.30;99.90
6581;DHT22;3324;50.796;7.228;2023-09-18T15:29:13;25.30;99.90
6581;DHT22;3324;50.796;7.228;2023-09-18T15:31:38;25.30;99.90
6581;DHT22;3324;50.796;7.228;2023-09-18T15:34:06;25.30;99.90
6581;DHT22;3324;50.796;7.228;2023-09-18T15:36:31;25.30;99.90
6581;DHT22;3324;50.796;7.228;2023-09-18T15:38:57;25.40;99.90
6581;DHT22;3324;50.796;7.228;2023-09-18T15:41:24;25.40;99.90
6581;DHT22;3324;50.796;7.228;2023-09-18T15:43:49;25.50;99.90
6581;DHT22;3324;50.796;7.228;2023-09-18T15:46:15;25.50;99.90
6581;DHT22;3324;50.796;7.228;2023-09-18T15:48:43;25.50;99.90
6581;DHT22;3324;50.796;7.228;2023-09-18T15:51:08;25.40;99.90
6581;DHT22;3324;50.796;7.228;2023-09-18T15:53:35;25.40;99.90
6581;DHT22;3324;50.796;7.228;2023-09-18T15:56:01;25.40;99.90
6581;DHT22;3324;50.796;7.228;2023-09-18T15:58:27;25.30;99.90
6581;DHT22;3324;50.796;7.228;2023-09-18T16:00:52;25.30;99.90
6581;DHT22;3324;50.796;7.228;2023-09-18T16:03:18;25.20;99.90
6581;DHT22;3324;50.796;7.228;2023-09-18T16:05:44;25.20;99.90
6581;DHT22;3324;50.796;7.228;2023-09-18T16:08:19;25.20;99.90
6581;DHT22;3324;50.796;7.228;2023-09-18T16:10:44;25.20;99.90
6581;DHT22;3324;50.796;7.228;2023-09-18T16:13:10;25.10;99.90